Latest Weather Observations for Fawkner Beacon

IDV60901

Issued at 10:51 pm EDT Saturday 25 January 2020 (issued every 10 minutes, with the page automatically refreshed every 10 minutes)

About weather observations | Map of Melbourne area stations | Latest observations for Melbourne area | Other Formats
Station Details ID: 086376 Name: FAWKNER BEACON Lat: -37.95 Lon: 144.93 Height: 17.0 m
Data from the previous 72 hours. | See also: Recent months at Fawkner Beacon
Date/Time
EDT
Temp
°C
App
Temp
°C
Dew
Point
°C
Rel
Hum
%
Delta-T
°C
Wind Press
QNH
hPa
Press
MSL
hPa
Rain since
9am
mm
Dir  Spd
km/h
Gust
km/h
Spd
kts
Gust
kts
25/10:30pm - - - - - SE 26 32 14 17 - - -
25/10:00pm - - - - - E 24 28 13 15 - - -
25/09:30pm - - - - - E 24 28 13 15 - - -
25/09:00pm - - - - - ESE 26 30 14 16 - - -
25/08:30pm - - - - - SE 28 30 15 16 - - -
25/08:00pm - - - - - ESE 28 32 15 17 - - -
25/07:30pm - - - - - SE 33 39 18 21 - - -
25/07:00pm - - - - - SE 32 35 17 19 - - -
25/06:30pm - - - - - SE 26 30 14 16 - - -
25/06:00pm - - - - - SSE 28 33 15 18 - - -
25/05:30pm - - - - - ESE 24 28 13 15 - - -
25/05:00pm - - - - - E 19 24 10 13 - - -
25/04:30pm - - - - - ESE 19 22 10 12 - - -
25/04:00pm - - - - - ESE 17 22 9 12 - - -
25/03:30pm - - - - - SE 11 13 6 7 - - -
25/03:00pm - - - - - SE 13 15 7 8 - - -
25/02:30pm - - - - - SE 13 15 7 8 - - -
25/02:00pm - - - - - SSE 15 17 8 9 - - -
25/01:30pm - - - - - SE 13 15 7 8 - - -
25/01:00pm - - - - - SE 13 15 7 8 - - -
25/12:30pm - - - - - SE 13 15 7 8 - - -
25/12:00pm - - - - - SSE 11 13 6 7 - - -
25/11:30am - - - - - SSE 9 11 5 6 - - -
25/11:00am - - - - - NE 6 9 3 5 - - -
25/10:30am - - - - - N 6 6 3 3 - - -
25/10:00am - - - - - N 11 13 6 7 - - -
25/09:30am - - - - - N 13 15 7 8 - - -
25/09:00am - - - - - N 15 20 8 11 - - -
25/08:30am - - - - - N 17 20 9 11 - - -
25/08:00am - - - - - N 19 22 10 12 - - -
25/07:30am - - - - - N 13 17 7 9 - - -
25/07:00am - - - - - NNW 13 15 7 8 - - -
25/06:30am - - - - - WNW 11 13 6 7 - - -
25/06:00am - - - - - W 11 15 6 8 - - -
25/05:30am - - - - - NW 13 15 7 8 - - -
25/05:00am - - - - - NW 13 15 7 8 - - -
25/04:30am - - - - - NNW 13 17 7 9 - - -
25/04:00am - - - - - NNW 13 17 7 9 - - -
25/03:30am - - - - - NW 11 13 6 7 - - -
25/03:00am - - - - - NW 11 15 6 8 - - -
25/02:30am - - - - - NW 13 15 7 8 - - -
25/02:00am - - - - - N 11 15 6 8 - - -
25/01:30am - - - - - WNW 15 20 8 11 - - -
25/01:00am - - - - - N 13 15 7 8 - - -
25/12:30am - - - - - NNW 15 20 8 11 - - -
25/12:00am - - - - - N 15 17 8 9 - - -
 
Date/Time
EDT
Temp
°C
App
Temp
°C
Dew
Point
°C
Rel
Hum
%
Delta-T
°C
Wind Press
QNH
hPa
Press
MSL
hPa
Rain since
9am
mm
Dir  Spd
km/h
Gust
km/h
Spd
kts
Gust
kts
24/11:30pm - - - - - NNW 13 15 7 8 - - -
24/11:00pm - - - - - NW 7 11 4 6 - - -
24/10:30pm - - - - - W 11 15 6 8 - - -
24/10:00pm - - - - - W 11 13 6 7 - - -
24/09:30pm - - - - - WSW 11 15 6 8 - - -
24/09:00pm - - - - - WSW 11 13 6 7 - - -
24/08:30pm - - - - - SW 19 22 10 12 - - -
24/08:00pm - - - - - WSW 17 20 9 11 - - -
24/07:30pm - - - - - W 7 11 4 6 - - -
24/07:00pm - - - - - W 13 15 7 8 - - -
24/06:30pm - - - - - WSW 13 17 7 9 - - -
24/06:00pm - - - - - W 17 22 9 12 - - -
24/05:30pm - - - - - W 26 32 14 17 - - -
24/05:00pm - - - - - WNW 24 28 13 15 - - -
24/04:30pm - - - - - W 20 32 11 17 - - -
24/04:00pm - - - - - WSW 22 30 12 16 - - -
24/03:30pm - - - - - WNW 17 26 9 14 - - -
24/03:00pm - - - - - WNW 24 28 13 15 - - -
24/02:30pm - - - - - W 28 33 15 18 - - -
24/02:00pm - - - - - W 24 30 13 16 - - -
24/01:30pm - - - - - W 30 35 16 19 - - -
24/01:00pm - - - - - W 15 20 8 11 - - -
24/12:30pm - - - - - WSW 11 15 6 8 - - -
24/12:00pm - - - - - W 13 20 7 11 - - -
24/11:30am - - - - - WSW 19 24 10 13 - - -
24/11:00am - - - - - W 28 33 15 18 - - -
24/10:30am - - - - - W 28 35 15 19 - - -
24/10:00am - - - - - NW 26 35 14 19 - - -
24/09:30am - - - - - WNW 28 35 15 19 - - -
24/09:00am - - - - - NW 30 39 16 21 - - -
24/08:30am - - - - - NNW 28 33 15 18 - - -
24/08:00am - - - - - NNW 30 35 16 19 - - -
24/07:30am - - - - - NNW 28 33 15 18 - - -
24/07:00am - - - - - NNW 24 30 13 16 - - -
24/06:30am - - - - - NNW 22 28 12 15 - - -
24/06:00am - - - - - NNW 15 22 8 12 - - -
24/05:30am - - - - - NNW 17 24 9 13 - - -
24/05:00am - - - - - NW 20 26 11 14 - - -
24/04:30am - - - - - NNW 20 26 11 14 - - -
24/04:00am - - - - - NNW 20 24 11 13 - - -
24/03:30am - - - - - NW 19 28 10 15 - - -
24/03:00am - - - - - NW 30 39 16 21 - - -
24/02:30am - - - - - NW 22 28 12 15 - - -
24/02:00am - - - - - WNW 28 33 15 18 - - -
24/01:30am - - - - - WNW 26 32 14 17 - - -
24/01:00am - - - - - W 28 33 15 18 - - -
24/12:30am - - - - - W 24 30 13 16 - - -
24/12:00am - - - - - W 22 28 12 15 - - -
 
Date/Time
EDT
Temp
°C
App
Temp
°C
Dew
Point
°C
Rel
Hum
%
Delta-T
°C
Wind Press
QNH
hPa
Press
MSL
hPa
Rain since
9am
mm
Dir  Spd
km/h
Gust
km/h
Spd
kts
Gust
kts
23/11:30pm - - - - - WSW 26 30 14 16 - - -
23/11:00pm - - - - - WSW 32 39 17 21 - - -
23/10:30pm - - - - - WSW 37 43 20 23 - - -
23/10:00pm - - - - - WSW 35 41 19 22 - - -
23/09:30pm - - - - - WSW 39 46 21 25 - - -
23/09:00pm - - - - - WSW 37 46 20 25 - - -
23/08:30pm - - - - - WSW 43 52 23 28 - - -
23/08:00pm - - - - - WSW 48 59 26 32 - - -
23/07:30pm - - - - - WSW 41 50 22 27 - - -
23/07:00pm - - - - - W 50 59 27 32 - - -
23/06:34pm - - - - - WSW 46 65 25 35 - - -
23/06:30pm - - - - - WSW 50 63 27 34 - - -
23/06:00pm - - - - - WSW 44 61 24 33 - - -
23/05:30pm - - - - - SW 54 65 29 35 - - -
23/05:20pm - - - - - WSW 50 61 27 33 - - -
23/05:00pm - - - - - W 44 57 24 31 - - -
23/04:30pm - - - - - WSW 43 52 23 28 - - -
23/04:12pm - - - - - WNW 43 54 23 29 - - -
23/04:00pm - - - - - WNW 50 67 27 36 - - -
23/03:57pm - - - - - WNW 46 67 25 36 - - -
23/03:30pm - - - - - WNW 46 59 25 32 - - -
23/03:00pm - - - - - W 46 57 25 31 - - -
23/02:44pm - - - - - W 39 57 21 31 - - -
23/02:30pm - - - - - W 39 48 21 26 - - -
23/02:00pm - - - - - W 35 43 19 23 - - -
23/01:49pm - - - - - WNW 44 54 24 29 - - -
23/01:30pm - - - - - WNW 59 80 32 43 - - -
23/01:25pm - - - - - WNW 54 80 29 43 - - -
23/01:00pm - - - - - NW 54 65 29 35 - - -
23/12:30pm - - - - - NNW 44 54 24 29 - - -
23/12:00pm - - - - - NNW 48 59 26 32 - - -
23/11:30am - - - - - NNW 37 46 20 25 - - -
23/11:00am - - - - - N 33 44 18 24 - - -
23/10:30am - - - - - N 30 35 16 19 - - -
23/10:00am - - - - - N 30 35 16 19 - - -
23/09:30am - - - - - NNW 20 26 11 14 - - -
23/09:00am - - - - - NW 19 26 10 14 - - -
23/08:30am - - - - - NNW 22 28 12 15 - - -
23/08:00am - - - - - NNW 24 30 13 16 - - -
23/07:30am - - - - - N 24 26 13 14 - - -
23/07:00am - - - - - N 26 30 14 16 - - -
23/06:30am - - - - - NNE 26 30 14 16 - - -
23/06:00am - - - - - NNE 24 32 13 17 - - -
23/05:30am - - - - - NNE 19 22 10 12 - - -
23/05:00am - - - - - N 7 11 4 6 - - -
23/04:30am - - - - - W 17 24 9 13 - - -
23/04:00am - - - - - W 19 26 10 14 - - -
23/03:30am - - - - - WSW 26 32 14 17 - - -
23/03:00am - - - - - SW 28 35 15 19 - - -
23/02:30am - - - - - SW 24 32 13 17 - - -
23/02:00am - - - - - SSW 24 30 13 16 - - -
23/01:30am - - - - - SSW 24 30 13 16 - - -
23/01:00am - - - - - SSE 17 22 9 12 - - -
23/12:30am - - - - - SSW 19 24 10 13 - - -
23/12:00am - - - - - S 11 17 6 9 - - -
 
Date/Time
EDT
Temp
°C
App
Temp
°C
Dew
Point
°C
Rel
Hum
%
Delta-T
°C
Wind Press
QNH
hPa
Press
MSL
hPa
Rain since
9am
mm
Dir  Spd
km/h
Gust
km/h
Spd
kts
Gust
kts
22/11:30pm - - - - - S 13 17 7 9 - - -
22/11:00pm - - - - - SSW 22 32 12 17 - - -

Latest Capital City Observations: Canberra | Sydney | Melbourne | Brisbane | Adelaide | Perth | Hobart | Darwin

Other formats

Comma delimited format used in spreadsheet applications
http://www.bom.gov.au/fwo/IDV60901/IDV60901.95872.axf

JavaScript Object Notation format (JSON) in row-major order
http://www.bom.gov.au/fwo/IDV60901/IDV60901.95872.json

Data quality

Most of these data are generated automatically and are frequently updated. Quality checks on data are not normally performed. It is possible for incorrect values to appear. Refer to information at About Latest Weather Observations and please check the disclaimer before using these data.